createdAt,value
2023-06-30T00:01:19.007Z,19.30
2023-06-30T00:03:47.031Z,19.30
2023-06-30T00:06:14.468Z,19.30
2023-06-30T00:08:41.792Z,19.20
2023-06-30T00:11:10.697Z,19.20
2023-06-30T00:13:38.181Z,19.20
2023-06-30T00:16:05.642Z,19.20
2023-06-30T00:18:33.283Z,19.20
2023-06-30T00:21:00.653Z,19.20
2023-06-30T00:23:29.384Z,19.10
2023-06-30T00:25:57.116Z,19.20
2023-06-30T00:28:24.920Z,19.20
2023-06-30T00:30:52.428Z,19.20
2023-06-30T00:33:19.903Z,19.20
2023-06-30T00:35:47.310Z,19.20
2023-06-30T00:38:14.876Z,19.20
2023-06-30T00:40:42.295Z,19.20
2023-06-30T00:43:09.518Z,19.20
2023-06-30T00:45:36.976Z,19.20
2023-06-30T00:48:05.188Z,19.20
2023-06-30T00:50:32.905Z,19.20
2023-06-30T00:53:01.241Z,19.20
2023-06-30T00:55:30.188Z,19.20
2023-06-30T00:57:57.480Z,19.20
2023-06-30T01:00:25.454Z,19.20
2023-06-30T01:03:05.080Z,19.20
2023-06-30T01:05:52.591Z,19.20
2023-06-30T01:09:11.288Z,19.20
2023-06-30T01:11:39.517Z,19.20
2023-06-30T01:14:08.375Z,19.20
2023-06-30T01:16:40.572Z,19.20
2023-06-30T01:19:26.189Z,19.20
2023-06-30T01:22:03.446Z,19.20
2023-06-30T01:24:37.911Z,19.20
2023-06-30T01:27:05.916Z,19.20
2023-06-30T01:29:34.284Z,19.20
2023-06-30T01:32:04.412Z,19.20
2023-06-30T01:34:32.089Z,19.20
2023-06-30T01:37:02.183Z,19.20
2023-06-30T01:39:29.813Z,19.20
2023-06-30T01:41:57.303Z,19.20
2023-06-30T01:44:24.894Z,19.20
2023-06-30T01:46:54.745Z,19.20
2023-06-30T01:49:23.206Z,19.20
2023-06-30T01:51:53.607Z,19.20
2023-06-30T01:54:21.064Z,19.10
2023-06-30T01:56:52.693Z,19.10
2023-06-30T01:59:22.948Z,19.10
2023-06-30T02:01:50.421Z,19.10
2023-06-30T02:04:17.989Z,19.10
2023-06-30T02:06:45.319Z,19.10
2023-06-30T02:09:15.559Z,19.10
2023-06-30T02:11:43.088Z,19.10
2023-06-30T02:14:13.421Z,19.10
2023-06-30T02:16:40.993Z,19.10
2023-06-30T02:19:10.221Z,19.10
2023-06-30T02:21:37.749Z,19.10
2023-06-30T02:24:05.407Z,19.10
2023-06-30T02:26:32.716Z,19.10
2023-06-30T02:29:00.444Z,19.10
2023-06-30T02:31:27.913Z,19.10
2023-06-30T02:33:55.664Z,19.10
2023-06-30T02:36:23.050Z,19.10
2023-06-30T02:38:50.726Z,19.10
2023-06-30T02:41:18.109Z,19.00
2023-06-30T02:43:45.688Z,19.00
2023-06-30T02:46:13.094Z,19.00
2023-06-30T02:48:40.615Z,19.00
2023-06-30T02:51:08.073Z,19.00
2023-06-30T02:54:57.593Z,18.90
2023-06-30T02:57:24.907Z,18.90
2023-06-30T02:59:52.267Z,18.90
2023-06-30T03:02:21.590Z,18.90
2023-06-30T03:04:49.178Z,18.90
2023-06-30T03:07:17.997Z,18.90
2023-06-30T03:09:46.238Z,18.90
2023-06-30T03:12:13.644Z,18.90
2023-06-30T03:14:41.276Z,18.90
2023-06-30T03:17:10.030Z,18.90
2023-06-30T03:19:37.508Z,18.90
2023-06-30T03:22:05.378Z,18.90
2023-06-30T03:24:32.884Z,18.90
2023-06-30T03:27:00.108Z,18.90
2023-06-30T03:29:30.399Z,18.90
2023-06-30T03:31:57.974Z,18.90
2023-06-30T03:34:26.830Z,18.90
2023-06-30T03:36:58.092Z,18.80
2023-06-30T03:39:25.914Z,18.80
2023-06-30T03:41:53.567Z,18.80
2023-06-30T03:44:22.347Z,18.80
2023-06-30T03:46:52.300Z,18.70
2023-06-30T03:49:20.618Z,18.70
2023-06-30T03:51:47.895Z,18.70
2023-06-30T03:54:15.474Z,18.60
2023-06-30T03:56:50.455Z,18.60
2023-06-30T03:59:18.456Z,18.60
2023-06-30T04:01:46.360Z,18.60
2023-06-30T04:04:14.044Z,18.60
2023-06-30T04:06:41.657Z,18.60
2023-06-30T04:09:11.693Z,18.60
2023-06-30T04:11:40.695Z,18.60
2023-06-30T04:14:45.642Z,18.60
2023-06-30T04:17:13.004Z,18.60
2023-06-30T04:19:40.306Z,18.60
2023-06-30T04:22:07.642Z,18.60
2023-06-30T04:24:35.035Z,18.60
2023-06-30T04:27:02.364Z,18.60
2023-06-30T04:29:30.557Z,18.60
2023-06-30T04:36:14.787Z,18.60
2023-06-30T04:38:48.533Z,18.60
2023-06-30T04:41:16.952Z,18.50
2023-06-30T04:43:45.294Z,18.50
2023-06-30T04:46:12.652Z,18.50
2023-06-30T04:48:42.894Z,18.50
2023-06-30T04:51:10.370Z,18.40
2023-06-30T04:53:40.277Z,18.40
2023-06-30T04:56:07.711Z,18.40
2023-06-30T04:58:37.147Z,18.40
2023-06-30T05:01:06.008Z,18.40
2023-06-30T05:03:33.577Z,18.40
2023-06-30T05:06:01.326Z,18.40
2023-06-30T05:08:31.936Z,18.40
2023-06-30T05:10:59.361Z,18.40
2023-06-30T05:13:29.655Z,18.40
2023-06-30T05:15:57.076Z,18.40
2023-06-30T05:18:26.661Z,18.40
2023-06-30T05:20:53.966Z,18.30
2023-06-30T05:23:21.604Z,18.30
2023-06-30T05:25:48.898Z,18.30
2023-06-30T05:28:16.933Z,18.30
2023-06-30T05:30:44.245Z,18.30
2023-06-30T05:33:11.609Z,18.40
2023-06-30T05:35:38.917Z,18.40
2023-06-30T05:38:06.318Z,18.40
2023-06-30T05:40:33.628Z,18.40
2023-06-30T05:43:01.140Z,18.50
2023-06-30T05:45:28.633Z,18.50
2023-06-30T05:47:56.007Z,18.50
2023-06-30T05:50:24.669Z,18.50
2023-06-30T05:52:52.106Z,18.60
2023-06-30T05:55:19.522Z,18.60
2023-06-30T05:57:47.758Z,18.60
2023-06-30T06:00:15.931Z,18.60
2023-06-30T06:02:43.446Z,18.70
2023-06-30T06:05:11.174Z,18.70
2023-06-30T06:07:38.769Z,18.70
2023-06-30T06:10:09.913Z,18.70
2023-06-30T06:12:40.761Z,18.80
2023-06-30T06:15:09.561Z,18.90
2023-06-30T06:17:37.164Z,18.90
2023-06-30T06:20:05.130Z,19.00
2023-06-30T06:22:32.541Z,19.00
2023-06-30T06:24:59.885Z,19.10
2023-06-30T06:27:27.418Z,19.20
2023-06-30T06:29:56.575Z,19.20
2023-06-30T06:32:23.970Z,19.30
2023-06-30T06:34:51.394Z,19.40
2023-06-30T06:37:18.628Z,19.60
2023-06-30T06:39:45.916Z,19.70
2023-06-30T06:42:15.301Z,20.00
2023-06-30T06:44:42.834Z,20.20
2023-06-30T06:48:06.457Z,20.40
2023-06-30T06:50:33.703Z,20.60
2023-06-30T06:53:01.242Z,20.80
2023-06-30T06:55:28.493Z,21.00
2023-06-30T06:57:56.341Z,21.20
2023-06-30T07:00:25.896Z,21.30
2023-06-30T07:02:54.531Z,21.50
2023-06-30T07:05:23.627Z,21.70
2023-06-30T07:07:53.209Z,22.00
2023-06-30T07:10:20.481Z,22.10
2023-06-30T07:12:50.709Z,22.30
2023-06-30T07:15:18.162Z,22.50
2023-06-30T07:17:45.561Z,22.60
2023-06-30T07:20:13.437Z,22.70
2023-06-30T07:22:40.721Z,22.80
2023-06-30T07:25:08.478Z,22.90
2023-06-30T07:27:40.065Z,23.00
2023-06-30T07:30:08.415Z,23.20
2023-06-30T07:32:35.940Z,23.40
2023-06-30T07:35:06.196Z,23.60
2023-06-30T07:37:34.680Z,23.70
2023-06-30T07:40:12.403Z,23.90
2023-06-30T07:42:44.538Z,24.10
2023-06-30T07:45:32.500Z,24.20
2023-06-30T07:48:00.124Z,24.50
2023-06-30T07:50:27.562Z,24.80
2023-06-30T07:52:54.989Z,25.00
2023-06-30T07:55:22.516Z,25.20
2023-06-30T07:57:50.398Z,25.40
2023-06-30T08:00:20.220Z,25.60
2023-06-30T08:02:48.578Z,25.70
2023-06-30T08:05:16.457Z,25.90
2023-06-30T08:07:51.395Z,26.00
2023-06-30T08:10:22.502Z,26.10
2023-06-30T08:12:49.703Z,26.10
2023-06-30T08:15:17.061Z,26.20
2023-06-30T08:17:53.669Z,26.20
2023-06-30T08:20:26.565Z,26.30
2023-06-30T08:22:55.059Z,26.40
2023-06-30T08:25:24.908Z,26.50
2023-06-30T08:27:53.872Z,26.60
2023-06-30T08:30:24.134Z,26.70
2023-06-30T08:32:52.908Z,26.90
2023-06-30T08:35:22.045Z,27.00
2023-06-30T08:37:52.959Z,27.30
2023-06-30T08:40:30.703Z,27.50
2023-06-30T08:43:04.906Z,27.60
2023-06-30T08:45:32.352Z,27.80
2023-06-30T08:48:07.570Z,28.10
2023-06-30T08:50:35.598Z,28.20
2023-06-30T08:53:05.484Z,28.40
2023-06-30T08:55:33.248Z,28.50
2023-06-30T08:58:13.340Z,28.60
2023-06-30T09:00:45.033Z,28.60
2023-06-30T09:03:12.619Z,28.80
2023-06-30T09:05:43.031Z,28.80
2023-06-30T09:08:28.716Z,28.70
2023-06-30T09:10:57.083Z,28.70
2023-06-30T09:13:25.714Z,28.70
2023-06-30T09:15:59.904Z,28.70
2023-06-30T09:18:27.795Z,28.70
2023-06-30T09:20:55.716Z,28.60
2023-06-30T09:23:23.429Z,28.60
2023-06-30T09:25:53.888Z,28.60
2023-06-30T09:28:21.230Z,28.50
2023-06-30T09:30:49.243Z,28.40
2023-06-30T09:33:18.725Z,28.40
2023-06-30T09:37:06.033Z,28.40
2023-06-30T09:39:33.725Z,28.40
2023-06-30T09:42:01.131Z,28.60
2023-06-30T09:44:28.747Z,28.80
2023-06-30T09:46:56.155Z,29.00
2023-06-30T09:49:34.028Z,29.30
2023-06-30T09:52:05.140Z,29.60
2023-06-30T09:54:43.851Z,29.80
2023-06-30T09:57:16.803Z,29.80
2023-06-30T09:59:46.295Z,29.80
2023-06-30T10:02:15.475Z,29.80
2023-06-30T10:04:44.665Z,29.70
2023-06-30T10:07:17.419Z,29.70
2023-06-30T10:09:49.018Z,29.60
2023-06-30T10:12:19.400Z,29.50
2023-06-30T10:14:49.849Z,29.50
2023-06-30T10:17:18.014Z,29.50
2023-06-30T10:19:45.807Z,29.40
2023-06-30T10:22:14.269Z,29.40
2023-06-30T10:24:44.864Z,29.50
2023-06-30T10:27:19.469Z,29.50
2023-06-30T10:29:50.065Z,29.50
2023-06-30T10:32:21.717Z,29.50
2023-06-30T10:34:50.927Z,29.50
2023-06-30T10:37:19.531Z,29.40
2023-06-30T10:39:48.243Z,29.40
2023-06-30T10:42:17.910Z,29.20
2023-06-30T10:44:49.306Z,29.10
2023-06-30T10:47:24.117Z,29.00
2023-06-30T10:49:54.690Z,28.80
2023-06-30T10:52:30.885Z,28.70
2023-06-30T10:55:09.709Z,28.70
2023-06-30T10:57:38.505Z,28.90
2023-06-30T11:00:11.899Z,29.10
2023-06-30T11:03:00.642Z,29.30
2023-06-30T11:05:32.681Z,29.50
2023-06-30T11:08:03.144Z,29.60
2023-06-30T11:10:47.341Z,29.60
2023-06-30T11:13:15.630Z,29.60
2023-06-30T11:15:53.262Z,29.60
2023-06-30T11:18:25.311Z,29.60
2023-06-30T11:21:03.518Z,29.70
2023-06-30T11:23:35.229Z,29.70
2023-06-30T11:26:18.229Z,29.90
2023-06-30T11:28:51.304Z,29.90
2023-06-30T11:31:19.561Z,30.00
2023-06-30T11:33:47.832Z,30.10
2023-06-30T11:36:17.218Z,30.20
2023-06-30T11:38:51.874Z,30.40
2023-06-30T11:41:24.541Z,30.50
2023-06-30T11:43:55.178Z,30.70
2023-06-30T11:46:23.721Z,30.90
2023-06-30T11:48:53.504Z,31.20
2023-06-30T11:51:21.240Z,31.30
2023-06-30T11:53:49.021Z,31.40
2023-06-30T11:56:19.301Z,31.40
2023-06-30T11:58:54.607Z,31.40
2023-06-30T12:01:22.294Z,31.40
2023-06-30T12:04:16.131Z,31.30
2023-06-30T12:06:47.316Z,31.10
2023-06-30T12:09:14.725Z,30.80
2023-06-30T12:11:49.925Z,30.50
2023-06-30T12:14:22.946Z,30.20
2023-06-30T12:16:52.775Z,30.00
2023-06-30T12:19:28.900Z,29.80
2023-06-30T12:21:57.998Z,29.60
2023-06-30T12:24:25.552Z,29.50
2023-06-30T12:26:53.412Z,29.30
2023-06-30T12:29:22.097Z,29.30
2023-06-30T12:31:49.577Z,29.40
2023-06-30T12:34:37.060Z,29.60
2023-06-30T12:37:05.010Z,29.80
2023-06-30T12:39:33.429Z,30.00
2023-06-30T12:42:00.868Z,30.20
2023-06-30T12:44:28.105Z,30.30
2023-06-30T12:47:07.392Z,30.40
2023-06-30T12:49:38.471Z,30.70
2023-06-30T12:52:06.761Z,31.00
2023-06-30T12:54:34.164Z,31.20
2023-06-30T12:57:03.350Z,31.40
2023-06-30T12:59:31.655Z,31.40
2023-06-30T13:01:59.301Z,31.50
2023-06-30T13:04:28.408Z,31.60
2023-06-30T13:06:55.961Z,31.70
2023-06-30T13:09:23.557Z,31.90
2023-06-30T13:11:50.893Z,32.10
2023-06-30T13:14:18.353Z,32.30
2023-06-30T13:16:45.600Z,32.50
2023-06-30T13:19:14.176Z,32.70
2023-06-30T13:21:41.534Z,32.80
2023-06-30T13:24:09.711Z,32.90
2023-06-30T13:26:38.397Z,32.80
2023-06-30T13:29:05.894Z,32.70
2023-06-30T13:31:33.362Z,32.50
2023-06-30T13:34:03.018Z,32.40
2023-06-30T13:36:31.274Z,32.50
2023-06-30T13:38:59.584Z,32.60
2023-06-30T13:41:27.941Z,32.70
2023-06-30T13:43:55.649Z,32.90
2023-06-30T13:46:26.122Z,33.20
2023-06-30T13:48:53.638Z,33.40
2023-06-30T13:51:22.496Z,33.70
2023-06-30T13:53:49.782Z,33.80
2023-06-30T13:56:17.024Z,33.90
2023-06-30T13:58:44.360Z,34.10
2023-06-30T14:01:11.884Z,34.30
2023-06-30T14:03:41.507Z,34.40
2023-06-30T14:06:09.143Z,34.50
2023-06-30T14:08:36.658Z,34.70
2023-06-30T14:11:04.705Z,34.80
2023-06-30T14:13:32.358Z,35.00
2023-06-30T14:15:59.828Z,35.00
2023-06-30T14:18:27.136Z,34.90
2023-06-30T14:20:54.739Z,34.70
2023-06-30T14:23:22.241Z,34.60
2023-06-30T14:25:49.599Z,34.40
2023-06-30T14:28:17.152Z,34.30
2023-06-30T14:30:46.716Z,34.30
2023-06-30T14:33:14.105Z,34.10
2023-06-30T14:36:10.903Z,34.00
2023-06-30T14:38:38.368Z,33.80
2023-06-30T14:41:05.805Z,33.60
2023-06-30T14:43:33.261Z,33.60
2023-06-30T14:46:00.480Z,33.50
2023-06-30T14:48:30.093Z,33.50
2023-06-30T14:50:57.292Z,33.40
2023-06-30T14:53:24.673Z,33.30
2023-06-30T14:55:52.044Z,33.30
2023-06-30T14:58:19.385Z,33.20
2023-06-30T15:00:46.728Z,33.20
2023-06-30T15:03:16.628Z,33.20
2023-06-30T15:05:44.641Z,33.20
2023-06-30T15:08:13.068Z,33.30
2023-06-30T15:10:43.083Z,33.30
2023-06-30T15:13:10.920Z,33.40
2023-06-30T15:15:38.295Z,33.50
2023-06-30T15:18:05.743Z,33.50
2023-06-30T15:20:33.283Z,33.40
2023-06-30T15:23:00.702Z,33.30
2023-06-30T15:25:33.253Z,33.20
2023-06-30T15:28:02.381Z,33.10
2023-06-30T15:30:30.636Z,32.90
2023-06-30T15:32:58.052Z,32.70
2023-06-30T15:35:29.435Z,32.50
2023-06-30T15:37:56.898Z,32.40
2023-06-30T15:40:27.407Z,32.30
2023-06-30T15:42:54.730Z,32.30
2023-06-30T15:45:22.079Z,32.20
2023-06-30T15:47:49.360Z,32.00
2023-06-30T15:50:17.124Z,31.80
2023-06-30T15:52:44.612Z,31.70
2023-06-30T15:55:15.393Z,31.40
2023-06-30T15:57:43.174Z,31.20
2023-06-30T16:00:12.031Z,31.00
2023-06-30T16:02:39.833Z,30.70
2023-06-30T16:05:08.797Z,30.50
2023-06-30T16:07:36.808Z,30.40
2023-06-30T16:10:06.656Z,30.30
2023-06-30T16:12:35.546Z,30.30
2023-06-30T16:15:05.352Z,30.30
2023-06-30T16:17:38.078Z,30.30
2023-06-30T16:20:07.284Z,30.50
2023-06-30T16:22:37.049Z,30.80
2023-06-30T16:25:04.696Z,31.10
2023-06-30T16:27:31.997Z,31.30
2023-06-30T16:30:30.755Z,31.60
2023-06-30T16:32:59.655Z,31.80
2023-06-30T16:35:31.754Z,32.10
2023-06-30T16:37:59.210Z,32.30
2023-06-30T16:40:26.685Z,32.50
2023-06-30T16:42:54.220Z,32.70
2023-06-30T16:45:22.094Z,32.70
2023-06-30T16:47:49.465Z,32.70
2023-06-30T16:50:18.430Z,32.70
2023-06-30T16:52:46.482Z,32.60
2023-06-30T16:55:14.276Z,32.40
2023-06-30T16:57:41.816Z,32.30
2023-06-30T17:00:10.360Z,32.00
2023-06-30T17:02:39.077Z,31.80
2023-06-30T17:05:07.553Z,31.60
2023-06-30T17:07:35.779Z,31.40
2023-06-30T17:10:04.612Z,31.10
2023-06-30T17:12:32.079Z,30.90
2023-06-30T17:15:02.057Z,30.70
2023-06-30T17:17:29.432Z,30.40
2023-06-30T17:19:56.707Z,30.20
2023-06-30T17:22:27.065Z,29.90
2023-06-30T17:24:56.293Z,29.70
2023-06-30T17:27:31.273Z,29.50
2023-06-30T17:29:58.527Z,29.30
2023-06-30T17:32:26.148Z,29.10
2023-06-30T17:34:53.465Z,29.00
2023-06-30T17:37:20.636Z,28.80
2023-06-30T17:39:48.034Z,28.70
2023-06-30T17:42:15.486Z,28.60
2023-06-30T17:44:44.571Z,28.50
2023-06-30T17:47:13.173Z,28.40
2023-06-30T17:49:40.826Z,28.20
2023-06-30T17:52:08.991Z,28.10
2023-06-30T17:54:36.396Z,28.00
2023-06-30T17:57:03.918Z,27.90
2023-06-30T17:59:32.222Z,27.90
2023-06-30T18:02:00.283Z,27.80
2023-06-30T18:04:27.874Z,27.80
2023-06-30T18:07:14.442Z,27.70
2023-06-30T18:09:44.625Z,27.70
2023-06-30T18:12:12.723Z,27.70
2023-06-30T18:14:42.604Z,27.70
2023-06-30T18:17:10.292Z,27.70
2023-06-30T18:19:40.575Z,27.70
2023-06-30T18:22:09.138Z,27.70
2023-06-30T18:24:36.378Z,27.70
2023-06-30T18:27:03.952Z,27.70
2023-06-30T18:29:31.483Z,27.70
2023-06-30T18:32:00.692Z,27.60
2023-06-30T18:34:28.476Z,27.50
2023-06-30T18:36:55.895Z,27.40
2023-06-30T18:39:23.518Z,27.30
2023-06-30T18:41:50.962Z,27.20
2023-06-30T18:44:18.289Z,27.20
2023-06-30T18:46:45.938Z,27.10
2023-06-30T18:49:13.563Z,27.00
2023-06-30T18:51:43.209Z,26.90
2023-06-30T18:54:11.221Z,26.80
2023-06-30T18:56:39.265Z,26.70
2023-06-30T18:59:06.716Z,26.70
2023-06-30T19:01:35.434Z,26.60
2023-06-30T19:04:03.222Z,26.50
2023-06-30T19:06:30.874Z,26.50
2023-06-30T19:08:58.128Z,26.40
2023-06-30T19:11:28.443Z,26.30
2023-06-30T19:13:55.781Z,26.20
2023-06-30T19:16:23.373Z,26.20
2023-06-30T19:18:50.856Z,26.10
2023-06-30T19:21:18.496Z,26.00
2023-06-30T19:23:45.840Z,26.00
2023-06-30T19:26:14.075Z,25.90
2023-06-30T19:28:42.424Z,25.80
2023-06-30T19:31:11.522Z,25.70
2023-06-30T19:33:39.978Z,25.60
2023-06-30T19:36:07.243Z,25.50
2023-06-30T19:38:35.013Z,25.50
2023-06-30T19:41:02.886Z,25.40
2023-06-30T19:43:30.768Z,25.30
2023-06-30T19:45:59.786Z,25.20
2023-06-30T19:48:27.196Z,25.10
2023-06-30T19:50:58.058Z,25.00
2023-06-30T19:53:25.284Z,24.90
2023-06-30T19:55:52.607Z,24.80
2023-06-30T19:58:20.426Z,24.70
2023-06-30T20:00:48.007Z,24.60
2023-06-30T20:03:15.650Z,24.60
2023-06-30T20:05:43.375Z,24.50
2023-06-30T20:08:11.074Z,24.50
2023-06-30T20:10:38.341Z,24.50
2023-06-30T20:13:07.710Z,24.40
2023-06-30T20:15:35.411Z,24.40
2023-06-30T20:18:02.683Z,24.30
2023-06-30T20:20:30.080Z,24.30
2023-06-30T20:22:57.437Z,24.30
2023-06-30T20:25:25.040Z,24.30
2023-06-30T20:27:52.517Z,24.30
2023-06-30T20:30:20.142Z,24.20
2023-06-30T20:32:47.757Z,24.20
2023-06-30T20:35:15.209Z,24.20
2023-06-30T20:37:42.628Z,24.20
2023-06-30T20:40:11.093Z,24.10
2023-06-30T20:42:38.489Z,24.10
2023-06-30T20:45:07.970Z,24.00
2023-06-30T20:47:36.240Z,24.00
2023-06-30T20:50:04.240Z,24.00
2023-06-30T20:52:31.769Z,23.90
2023-06-30T20:54:59.036Z,23.90
2023-06-30T20:57:26.420Z,23.80
2023-06-30T20:59:53.813Z,23.80
2023-06-30T21:02:21.087Z,23.70
2023-06-30T21:04:49.550Z,23.70
2023-06-30T21:07:17.069Z,23.60
2023-06-30T21:09:45.014Z,23.60
2023-06-30T21:12:12.284Z,23.50
2023-06-30T21:14:39.663Z,23.50
2023-06-30T21:17:09.846Z,23.50
2023-06-30T21:19:37.655Z,23.40
2023-06-30T21:22:05.796Z,23.40
2023-06-30T21:24:33.136Z,23.40
2023-06-30T21:27:01.249Z,23.30
2023-06-30T21:29:28.537Z,23.30
2023-06-30T21:31:55.985Z,23.30
2023-06-30T21:34:24.665Z,23.30
2023-06-30T21:36:52.009Z,23.20
2023-06-30T21:39:19.399Z,23.20
2023-06-30T21:41:46.717Z,23.20
2023-06-30T21:44:14.085Z,23.10
2023-06-30T21:46:43.716Z,23.10
2023-06-30T21:49:11.234Z,23.10
2023-06-30T21:51:38.611Z,23.00
2023-06-30T21:54:07.054Z,23.00
2023-06-30T21:56:35.159Z,23.00
2023-06-30T21:59:03.725Z,22.90
2023-06-30T22:01:40.003Z,22.90
2023-06-30T22:04:08.815Z,22.90
2023-06-30T22:06:36.333Z,22.80
2023-06-30T22:09:14.963Z,22.80
2023-06-30T22:11:44.385Z,22.80
2023-06-30T22:14:13.590Z,22.80
2023-06-30T22:16:41.112Z,22.70
2023-06-30T22:19:08.591Z,22.70
2023-06-30T22:21:35.971Z,22.70
2023-06-30T22:24:03.363Z,22.70
2023-06-30T22:26:30.581Z,22.70
2023-06-30T22:28:57.809Z,22.70
2023-06-30T22:31:25.178Z,22.70
2023-06-30T22:33:52.528Z,22.70
2023-06-30T22:36:19.826Z,22.70
2023-06-30T22:38:47.175Z,22.70
2023-06-30T22:41:14.450Z,22.70
2023-06-30T22:43:41.654Z,22.70
2023-06-30T22:46:08.882Z,22.70
2023-06-30T22:48:36.245Z,22.70
2023-06-30T22:51:03.768Z,22.70
2023-06-30T22:53:31.066Z,22.70
2023-06-30T22:55:58.360Z,22.70
2023-06-30T22:58:25.869Z,22.70
2023-06-30T23:00:53.140Z,22.70
2023-06-30T23:03:20.807Z,22.70
2023-06-30T23:05:48.249Z,22.70
2023-06-30T23:08:15.833Z,22.70
2023-06-30T23:10:43.141Z,22.70
2023-06-30T23:13:10.424Z,22.70
2023-06-30T23:15:37.894Z,22.60
2023-06-30T23:18:06.781Z,22.70
2023-06-30T23:20:35.562Z,22.60
2023-06-30T23:23:04.397Z,22.60
2023-06-30T23:25:34.731Z,22.60
2023-06-30T23:28:04.978Z,22.60
2023-06-30T23:30:34.957Z,22.60
2023-06-30T23:33:04.346Z,22.60
2023-06-30T23:35:32.466Z,22.60
2023-06-30T23:37:59.848Z,22.60
2023-06-30T23:40:27.300Z,22.60
2023-06-30T23:42:55.789Z,22.60
2023-06-30T23:45:23.245Z,22.50
2023-06-30T23:47:50.552Z,22.50
2023-06-30T23:50:17.922Z,22.50
2023-06-30T23:52:45.263Z,22.50
2023-06-30T23:55:13.152Z,22.50
2023-06-30T23:57:40.688Z,22.50
